Time;durP1;ratioP1;P1;durP2;ratioP2;P2;SDS_P1;SDS_P2;PMS_P1;PMS_P2;Temp;Humidity;BMP_temperature;BMP_pressure;BME280_temperature;BME280_humidity;BME280_pressure;Samples;Min_cycle;Max_cycle;Signal;HPM_P1;HPM_P2
2022/08/11 00:00:43;;;;;;;;;10.33;10.33;;;;;24.23;36.46;101399.63;5082528;28;45485;-84
2022/08/11 00:03:12;;;;;;;;;12.67;12.00;;;;;24.25;36.59;101400.19;5083800;28;45310;-84
2022/08/11 00:05:46;;;;;;;;;12.33;11.67;;;;;24.28;36.71;101407.84;5078694;28;46134;-83
2022/08/11 00:08:22;;;;;;;;;9.67;9.67;;;;;24.19;37.10;101395.75;5069759;28;47285;-84
2022/08/11 00:10:57;;;;;;;;;11.00;11.00;;;;;24.16;37.17;101397.09;5076937;28;44746;-84
2022/08/11 00:13:34;;;;;;;;;11.00;11.00;;;;;24.19;36.89;101406.63;5073994;28;45204;-84
2022/08/11 00:16:01;;;;;;;;;13.33;12.67;;;;;24.13;37.19;101403.03;5084610;27;47501;-84
2022/08/11 00:18:29;;;;;;;;;11.67;11.67;;;;;24.05;37.03;101408.81;5090224;27;47058;-84
2022/08/11 00:20:58;;;;;;;;;12.00;12.00;;;;;24.02;36.94;101402.00;5069992;27;45374;-84
2022/08/11 00:23:25;;;;;;;;;12.33;11.00;;;;;24.04;37.18;101402.59;5082535;28;45298;-84
2022/08/11 00:25:52;;;;;;;;;12.00;12.00;;;;;24.02;37.40;101402.00;5081601;28;46609;-84
2022/08/11 00:28:32;;;;;;;;;13.67;13.67;;;;;24.00;37.53;101411.50;5081299;27;46718;-84
2022/08/11 00:31:01;;;;;;;;;12.00;12.00;;;;;23.94;37.62;101407.84;5082669;28;45270;-83
2022/08/11 00:33:41;;;;;;;;;10.67;10.67;;;;;23.94;36.97;101408.69;5081961;28;45335;-83
2022/08/11 00:36:09;;;;;;;;;12.33;12.33;;;;;23.92;37.39;101407.28;5082824;28;45431;-83
2022/08/11 00:38:39;;;;;;;;;10.67;10.67;;;;;23.86;36.91;101406.41;5081012;28;47289;-84
2022/08/11 00:41:26;;;;;;;;;10.67;10.67;;;;;23.87;37.06;101413.47;5081794;28;45426;-83
2022/08/11 00:44:03;;;;;;;;;11.33;11.00;;;;;23.85;37.24;101412.06;5062818;28;45275;-84
2022/08/11 00:47:06;;;;;;;;;12.00;12.00;;;;;23.83;36.89;101415.84;5075122;28;46210;-84
2022/08/11 00:50:09;;;;;;;;;10.33;10.33;;;;;23.75;37.47;101413.56;5080931;28;47275;-83
2022/08/11 00:53:03;;;;;;;;;10.00;10.00;;;;;23.74;37.29;101411.09;5073219;28;45326;-83
2022/08/11 00:56:00;;;;;;;;;11.67;11.33;;;;;23.70;37.77;101414.28;5061628;28;45333;-83
2022/08/11 00:59:02;;;;;;;;;11.00;11.00;;;;;23.68;37.46;101412.91;5061575;28;46268;-84
2022/08/11 01:01:37;;;;;;;;;10.67;10.67;;;;;23.64;37.31;101409.03;5074647;28;45513;-85
2022/08/11 01:04:43;;;;;;;;;12.67;12.67;;;;;23.64;37.57;101411.75;5082299;27;45279;-83
2022/08/11 01:07:30;;;;;;;;;12.67;11.00;;;;;23.64;37.27;101403.63;5082516;27;45502;-84
2022/08/11 01:10:07;;;;;;;;;11.67;11.00;;;;;23.58;37.70;101408.94;5082952;28;45278;-84
2022/08/11 01:12:43;;;;;;;;;11.67;11.67;;;;;23.61;37.34;101404.09;5067901;27;45292;-83
2022/08/11 01:15:32;;;;;;;;;11.00;10.33;;;;;23.62;37.42;101411.16;5082445;27;45184;-83
2022/08/11 01:18:41;;;;;;;;;12.33;12.33;;;;;23.61;37.89;101407.63;5091634;27;45387;-83
2022/08/11 01:21:56;;;;;;;;;8.67;8.67;;;;;23.51;37.83;101402.03;5082596;28;45326;-83
2022/08/11 01:24:40;;;;;;;;;12.33;12.33;;;;;23.52;37.56;101406.41;5082154;28;47902;-83
2022/08/11 01:27:27;;;;;;;;;11.00;11.00;;;;;23.51;37.70;101402.03;5081524;28;45557;-83
2022/08/11 01:30:18;;;;;;;;;10.67;10.67;;;;;23.48;38.23;101406.06;5081049;28;45295;-84
2022/08/11 01:32:49;;;;;;;;;11.00;11.00;;;;;23.42;38.32;101409.75;5068888;28;45429;-83
2022/08/11 01:35:33;;;;;;;;;11.67;11.67;;;;;23.39;38.05;101412.94;5065697;28;48503;-83
2022/08/11 01:38:36;;;;;;;;;12.67;12.67;;;;;23.32;38.29;101411.19;5081488;27;45276;-83
2022/08/11 01:41:20;;;;;;;;;14.00;14.00;;;;;23.25;38.49;101410.53;5068856;28;45462;-83
2022/08/11 01:46:35;;;;;;;;;11.33;11.33;;;;;23.17;38.49;101408.22;5067070;28;45450;-83
2022/08/11 01:49:30;;;;;;;;;12.00;11.33;;;;;23.14;38.89;101408.69;5065805;28;45311;-84
2022/08/11 01:52:18;;;;;;;;;10.00;10.00;;;;;23.11;39.06;101409.19;5079904;28;45398;-83
2022/08/11 01:54:52;;;;;;;;;12.00;11.00;;;;;22.97;38.20;101401.34;5068175;28;46131;-83
2022/08/11 01:57:28;;;;;;;;;13.00;12.67;;;;;23.01;38.96;101409.81;5067133;28;45375;-83
2022/08/11 02:00:05;;;;;;;;;11.67;11.67;;;;;22.96;39.12;101407.84;5067904;28;45931;-83
2022/08/11 02:02:46;;;;;;;;;10.67;10.00;;;;;22.97;38.62;101416.78;5079561;28;45383;-83
2022/08/11 02:05:42;;;;;;;;;10.00;10.00;;;;;22.95;39.22;101408.88;5065966;28;46327;-83
2022/08/11 02:08:30;;;;;;;;;13.00;13.00;;;;;22.93;39.17;101402.91;5072139;28;45437;-82
2022/08/11 02:13:55;;;;;;;;;14.00;12.00;;;;;22.80;38.65;101402.13;5081983;28;45251;-83
2022/08/11 02:16:23;;;;;;;;;12.33;11.00;;;;;22.78;38.98;101409.66;5080439;28;45467;-83
2022/08/11 02:25:31;;;;;;;;;11.00;10.33;;;;;22.69;39.29;101402.97;5078125;28;45509;-83
2022/08/11 02:28:24;;;;;;;;;12.67;12.00;;;;;22.55;39.91;101397.81;5073467;28;47215;-82
2022/08/11 02:33:21;;;;;;;;;10.33;10.33;;;;;22.60;39.30;101399.00;5080379;28;46139;-83
2022/08/11 02:33:53;;;;;;;;;13.00;11.33;;;;;22.56;39.68;101404.88;5073279;28;45293;-82
2022/08/11 02:36:42;;;;;;;;;10.67;10.67;;;;;22.45;40.00;101384.88;5072656;28;45375;-82
2022/08/11 02:39:11;;;;;;;;;13.33;12.67;;;;;22.43;39.85;101395.13;5070299;28;45393;-83
2022/08/11 02:44:35;;;;;;;;;11.00;11.00;;;;;22.41;39.74;101399.94;5060160;28;45264;-83
2022/08/11 02:47:13;;;;;;;;;15.00;14.00;;;;;22.32;40.31;101391.38;5064352;28;45437;-83
2022/08/11 02:49:59;;;;;;;;;11.33;11.33;;;;;22.33;40.00;101393.00;5067034;28;46270;-83
2022/08/11 02:52:36;;;;;;;;;12.00;11.67;;;;;22.28;39.91;101398.31;5065194;28;47086;-83
2022/08/11 02:55:07;;;;;;;;;11.33;11.00;;;;;22.31;40.18;101394.31;5079921;28;45239;-84
2022/08/11 02:57:40;;;;;;;;;13.33;12.00;;;;;22.26;40.25;101395.03;5080107;28;45385;-83
2022/08/11 03:00:11;;;;;;;;;13.67;12.67;;;;;22.25;39.97;101398.81;5079841;28;45628;-83
2022/08/11 03:02:56;;;;;;;;;9.00;9.00;;;;;22.29;40.51;101391.00;5078621;28;47518;-83
2022/08/11 03:05:40;;;;;;;;;11.33;11.33;;;;;22.24;40.14;101380.09;5077454;28;45387;-83
2022/08/11 03:08:23;;;;;;;;;12.00;11.00;;;;;22.17;40.06;101380.19;5068080;28;45242;-83
2022/08/11 03:17:16;;;;;;;;;11.00;11.00;;;;;22.12;40.48;101380.09;5089443;27;45372;-82
2022/08/11 03:19:44;;;;;;;;;12.67;12.67;;;;;22.15;40.22;101391.25;5076894;28;44722;-83
2022/08/11 03:22:28;;;;;;;;;11.67;11.67;;;;;22.10;40.81;101384.91;5080409;28;47168;-83
2022/08/11 03:24:57;;;;;;;;;10.33;10.33;;;;;22.07;40.38;101395.16;5079948;28;47276;-83
2022/08/11 03:27:40;;;;;;;;;12.33;12.33;;;;;22.02;40.70;101388.78;5070007;28;45449;-82
2022/08/11 03:30:14;;;;;;;;;10.67;10.67;;;;;21.98;41.01;101384.91;5074668;28;45417;-82
2022/08/11 03:34:00;;;;;;;;;10.67;10.67;;;;;22.00;40.37;101396.34;5066947;28;45879;-84
2022/08/11 03:35:39;;;;;;;;;13.33;12.67;;;;;21.93;40.54;101385.63;5069914;28;45337;-83
2022/08/11 03:38:11;;;;;;;;;11.67;11.67;;;;;21.96;40.57;101389.75;5080928;28;46081;-82
2022/08/11 03:44:09;;;;;;;;;9.67;9.67;;;;;21.89;40.80;101390.69;5083394;28;45366;-82
2022/08/11 03:47:07;;;;;;;;;12.00;11.33;;;;;21.84;40.85;101397.88;5081446;28;47095;-82
2022/08/11 03:49:42;;;;;;;;;11.67;10.33;;;;;21.81;40.85;101405.38;5090254;27;45483;-82
2022/08/11 03:52:22;;;;;;;;;10.33;10.33;;;;;21.78;40.71;101391.50;5068110;28;45506;-82
2022/08/11 03:54:59;;;;;;;;;13.67;13.67;;;;;21.68;41.46;101379.38;5070612;28;45418;-82
2022/08/11 03:58:07;;;;;;;;;12.00;10.67;;;;;21.69;41.19;101393.69;5082716;28;45358;-82
2022/08/11 04:00:53;;;;;;;;;11.33;11.33;;;;;21.67;41.28;101390.41;5079173;28;45270;-82
2022/08/11 04:03:52;;;;;;;;;11.67;11.67;;;;;21.59;41.19;101390.75;5074576;28;45343;-83
2022/08/11 04:06:36;;;;;;;;;11.67;11.67;;;;;21.58;41.67;101400.75;5083957;28;45419;-82
2022/08/11 04:09:45;;;;;;;;;14.00;13.33;;;;;21.55;41.78;101396.63;5067102;28;48344;-82
2022/08/11 04:12:36;;;;;;;;;13.67;13.67;;;;;21.53;41.60;101398.75;5067543;27;45399;-82
2022/08/11 04:18:04;;;;;;;;;12.33;12.33;;;;;21.50;41.44;101401.91;5066428;28;45338;-81
2022/08/11 04:20:54;;;;;;;;;12.00;12.00;;;;;21.44;41.88;101394.72;5089846;28;47341;-83
2022/08/11 04:23:26;;;;;;;;;11.67;11.67;;;;;21.41;41.95;101389.78;5089763;28;45283;-86
2022/08/11 04:26:17;;;;;;;;;13.00;13.00;;;;;21.41;41.60;101387.06;5074011;28;45375;-83
2022/08/11 04:28:56;;;;;;;;;12.00;12.00;;;;;21.34;41.75;101384.47;5074551;28;46241;-84
2022/08/11 04:31:43;;;;;;;;;11.00;11.00;;;;;21.35;42.03;101385.28;5085844;28;45450;-83
2022/08/11 04:34:45;;;;;;;;;12.00;12.00;;;;;21.35;42.08;101394.22;5076112;28;45376;-83
2022/08/11 04:40:23;;;;;;;;;11.00;11.00;;;;;21.25;41.80;101385.88;5075259;28;45338;-84
2022/08/11 04:43:22;;;;;;;;;12.00;12.00;;;;;21.34;42.24;101389.88;5089603;27;46961;-83
2022/08/11 04:46:06;;;;;;;;;10.67;10.67;;;;;21.37;42.09;101394.81;5106347;27;45808;-84
2022/08/11 05:01:54;;;;;;;;;13.33;13.33;;;;;21.39;41.98;101395.41;5075257;28;45480;-84
2022/08/11 05:07:57;;;;;;;;;12.00;12.00;;;;;21.39;42.14;101403.53;5066677;28;45774;-79
2022/08/11 05:10:28;;;;;;;;;13.33;11.67;;;;;21.40;42.30;101404.34;5079196;28;45233;-79
2022/08/11 05:27:09;;;;;;;;;12.67;12.67;;;;;21.34;42.11;101397.16;5065251;28;45358;-77
2022/08/11 05:35:44;;;;;;;;;13.00;11.67;;;;;21.40;42.59;101431.41;5072546;28;45333;-80
2022/08/11 05:57:48;;;;;;;;;15.67;15.67;;;;;21.63;42.60;101440.59;5068739;28;45465;-80
2022/08/11 06:00:14;;;;;;;;;12.67;12.67;;;;;21.56;41.96;101430.72;5070406;28;45437;-80
2022/08/11 06:02:48;;;;;;;;;14.33;13.33;;;;;21.64;42.30;101437.66;5091896;27;47581;-80
2022/08/11 06:05:15;;;;;;;;;12.33;11.67;;;;;21.66;41.73;101435.56;5080138;28;45500;-80
2022/08/11 06:07:42;;;;;;;;;14.67;13.00;;;;;21.72;41.87;101431.09;5078593;28;45348;-80
2022/08/11 06:10:09;;;;;;;;;12.00;11.00;;;;;21.70;42.70;101433.22;5079722;28;45372;-80
2022/08/11 06:12:36;;;;;;;;;13.67;13.67;;;;;21.78;42.26;101434.78;5064866;28;45427;-81
2022/08/11 06:15:10;;;;;;;;;13.33;13.33;;;;;21.87;41.61;101437.97;5066287;28;45295;-81
2022/08/11 06:17:45;;;;;;;;;12.33;12.33;;;;;21.88;41.77;101439.63;5081763;27;45458;-80
2022/08/11 06:20:13;;;;;;;;;12.00;12.00;;;;;21.85;41.92;101430.06;5065868;28;46223;-79
2022/08/11 06:22:42;;;;;;;;;16.00;13.00;;;;;21.87;42.20;101427.13;5078235;28;48139;-79
2022/08/11 06:25:09;;;;;;;;;12.67;12.67;;;;;21.92;41.54;101421.88;5065877;28;45824;-79
2022/08/11 06:27:37;;;;;;;;;12.00;12.00;;;;;22.01;41.46;101435.88;5076004;28;45301;-79
2022/08/11 06:30:12;;;;;;;;;11.00;11.00;;;;;22.10;42.26;101444.47;5078064;28;45523;-78
2022/08/11 06:32:40;;;;;;;;;12.33;12.33;;;;;21.88;41.63;101405.25;5078108;28;46432;-80
2022/08/11 06:35:15;;;;;;;;;13.00;11.00;;;;;22.14;41.70;101432.09;5079811;28;45424;-78
2022/08/11 06:37:57;;;;;;;;;13.00;13.00;;;;;22.24;41.72;101445.84;5079563;28;45350;-79
2022/08/11 06:40:34;;;;;;;;;12.00;12.00;;;;;22.35;41.35;101454.25;5077839;28;45758;-81
2022/08/11 06:43:10;;;;;;;;;12.00;11.67;;;;;22.41;41.36;101447.84;5074858;28;47288;-81
2022/08/11 06:46:01;;;;;;;;;13.00;12.67;;;;;22.51;41.17;101439.94;5074515;28;45320;-83
2022/08/11 06:48:31;;;;;;;;;12.33;12.33;;;;;22.55;41.66;101438.44;5065071;28;45392;-81
2022/08/11 06:51:13;;;;;;;;;13.33;13.33;;;;;22.61;41.13;101435.84;5077859;28;46146;-82
2022/08/11 06:53:47;;;;;;;;;12.33;12.33;;;;;22.70;41.37;101456.09;5077297;28;47108;-80
2022/08/11 07:02:14;;;;;;;;;13.00;13.00;;;;;23.01;40.87;101458.63;5072959;28;45497;-80
2022/08/11 07:04:52;;;;;;;;;11.33;11.33;;;;;23.10;39.92;101456.34;5069695;28;45770;-79
2022/08/11 07:16:19;;;;;;;;;14.00;14.00;;;;;23.29;40.30;101448.84;5087683;27;45382;-78
2022/08/11 07:30:09;;;;;;;;;12.00;12.00;;;;;23.62;39.46;101441.00;5082140;28;45305;-78
2022/08/11 07:32:49;;;;;;;;;13.33;13.33;;;;;23.71;39.88;101447.69;5064181;28;45470;-78
2022/08/11 07:35:19;;;;;;;;;12.67;12.67;;;;;23.75;39.59;101443.41;5064805;28;46581;-79
2022/08/11 07:37:55;;;;;;;;;12.00;11.00;;;;;23.87;39.61;101456.06;5081019;28;48195;-79
2022/08/11 07:40:23;;;;;;;;;13.33;13.33;;;;;23.97;39.46;101453.50;5083457;28;45907;-80
2022/08/11 07:42:51;;;;;;;;;15.00;14.67;;;;;23.99;39.62;101436.97;5094894;27;45473;-76
2022/08/11 07:53:33;;;;;;;;;13.00;13.00;;;;;24.51;39.69;101443.16;5080988;28;45517;-78
2022/08/11 07:56:01;;;;;;;;;14.33;13.67;;;;;24.59;39.58;101442.72;5087996;27;46136;-77
2022/08/11 08:17:56;;;;;;;;;12.67;12.67;;;;;25.51;38.59;101437.72;5079620;27;45282;-83
2022/08/11 08:20:38;;;;;;;;;15.67;14.33;;;;;25.55;38.11;101426.06;5080551;28;46341;-81
2022/08/11 08:23:05;;;;;;;;;13.67;13.67;;;;;25.69;38.06;101437.38;5074042;28;45450;-80
2022/08/11 08:25:36;;;;;;;;;11.67;11.33;;;;;25.78;37.86;101426.81;5079899;28;45453;-79
2022/08/11 08:28:08;;;;;;;;;14.33;14.33;;;;;25.94;37.51;101429.63;5068317;28;46088;-80
2022/08/11 08:30:51;;;;;;;;;12.00;12.00;;;;;26.06;37.17;101430.28;5075001;28;47419;-80
2022/08/11 08:33:26;;;;;;;;;11.33;11.33;;;;;26.22;37.46;101439.34;5079334;28;45351;-80
2022/08/11 08:36:10;;;;;;;;;16.00;14.67;;;;;26.33;36.66;101442.97;5087412;27;45478;-80
2022/08/11 08:38:55;;;;;;;;;13.00;13.00;;;;;26.53;36.80;101437.91;5080778;28;45326;-79
2022/08/11 08:41:24;;;;;;;;;14.00;11.67;;;;;26.59;36.79;101439.56;5078358;28;48391;-77
2022/08/11 08:43:53;;;;;;;;;12.33;11.67;;;;;26.67;36.81;101435.50;5078772;28;45409;-78
2022/08/11 08:46:28;;;;;;;;;11.67;11.33;;;;;26.79;35.70;101435.28;5082715;27;45359;-80
2022/08/11 08:48:58;;;;;;;;;12.67;12.67;;;;;26.94;36.04;101431.78;5079118;28;45645;-79
2022/08/11 08:51:34;;;;;;;;;14.33;13.00;;;;;27.02;36.08;101434.00;5079644;28;46380;-81
2022/08/11 08:54:05;;;;;;;;;13.00;13.00;;;;;27.11;35.91;101434.28;5079222;28;45558;-79
2022/08/11 08:56:33;;;;;;;;;12.00;12.00;;;;;27.22;35.49;101444.13;5091932;27;45491;-80
2022/08/11 08:59:01;;;;;;;;;10.67;10.67;;;;;27.30;35.67;101433.78;5084259;27;46475;-80
2022/08/11 09:01:41;;;;;;;;;10.67;10.67;;;;;27.43;35.32;101437.84;5080064;28;47256;-79
2022/08/11 09:04:07;;;;;;;;;13.67;13.67;;;;;27.54;35.13;101434.06;5081490;28;45432;-80
2022/08/11 09:06:44;;;;;;;;;11.00;11.00;;;;;27.66;35.02;101441.19;5078635;28;46805;-79
2022/08/11 09:09:13;;;;;;;;;11.33;11.33;;;;;27.75;34.64;101436.81;5062037;28;45332;-79
2022/08/11 09:11:49;;;;;;;;;12.33;11.33;;;;;27.92;34.17;101438.44;5075940;28;47395;-80
2022/08/11 09:14:20;;;;;;;;;10.33;10.33;;;;;28.08;34.08;101437.31;5088720;27;45387;-79
2022/08/11 09:16:47;;;;;;;;;11.00;10.33;;;;;28.11;34.01;101423.06;5084324;27;45317;-79
2022/08/11 09:19:18;;;;;;;;;9.00;9.00;;;;;28.24;33.38;101423.59;5079626;28;46102;-79
2022/08/11 09:26:58;;;;;;;;;8.67;8.67;;;;;28.38;32.42;101425.75;5096315;27;48123;-78
2022/08/11 09:27:24;;;;;;;;;9.00;9.00;;;;;28.68;31.68;101415.78;5080892;28;45329;-78
2022/08/11 09:29:50;;;;;;;;;8.33;8.00;;;;;28.74;32.28;101414.66;5080366;28;45267;-78
2022/08/11 09:32:21;;;;;;;;;9.00;9.00;;;;;28.86;31.27;101422.53;5079494;28;46903;-79
2022/08/11 09:34:50;;;;;;;;;9.00;8.00;;;;;28.95;31.21;101415.41;5091550;27;45757;-79
2022/08/11 09:45:31;;;;;;;;;8.00;8.00;;;;;29.38;30.35;101404.97;5080378;28;45568;-78
2022/08/11 09:47:57;;;;;;;;;11.67;10.33;;;;;29.53;30.09;101403.97;5088284;27;45287;-78
2022/08/11 09:50:23;;;;;;;;;7.00;7.00;;;;;29.64;29.03;101407.47;5078784;28;46262;-80
2022/08/11 09:52:49;;;;;;;;;10.00;10.00;;;;;29.75;29.47;101411.78;5075171;28;48282;-79
2022/08/11 09:55:16;;;;;;;;;8.00;8.00;;;;;29.85;28.76;101405.34;5074880;28;45256;-81
2022/08/11 10:00:36;;;;;;;;;9.00;9.00;;;;;30.08;28.79;101406.47;5068951;28;45318;-78
2022/08/11 10:03:06;;;;;;;;;9.33;9.33;;;;;30.20;27.31;101397.84;5077842;28;48354;-78
2022/08/11 10:08:18;;;;;;;;;7.67;7.67;;;;;30.46;26.97;101402.19;5080193;28;45324;-78
2022/08/11 10:10:45;;;;;;;;;10.33;9.33;;;;;30.51;26.74;101402.16;5080036;28;45420;-80
2022/08/11 10:13:24;;;;;;;;;5.67;5.67;;;;;30.67;26.72;101400.00;5079991;28;46560;-77
2022/08/11 10:15:55;;;;;;;;;9.33;9.33;;;;;30.80;26.13;101398.50;5080368;27;46078;-77
2022/08/11 10:18:48;;;;;;;;;12.67;12.33;;;;;30.90;26.56;101396.69;5066352;28;45310;-76
2022/08/11 10:21:23;;;;;;;;;11.67;10.33;;;;;31.05;25.98;101392.91;5082647;28;45453;-77
2022/08/11 10:26:53;;;;;;;;;10.67;10.67;;;;;31.41;25.31;101386.03;5076459;28;45334;-79
2022/08/11 10:35:15;;;;;;;;;12.33;12.33;;;;;31.93;24.60;101385.13;5080749;28;45406;-86
2022/08/11 10:37:43;;;;;;;;;10.00;10.00;;;;;32.08;25.31;101382.03;5080612;28;45294;-82
2022/08/11 10:40:14;;;;;;;;;9.00;9.00;;;;;32.15;25.39;101356.09;5066341;28;45323;-80
2022/08/11 10:48:11;;;;;;;;;12.67;11.67;;;;;32.77;24.30;101362.16;5073730;28;45319;-80
2022/08/11 10:58:55;;;;;;;;;9.67;9.67;;;;;33.43;22.98;101361.63;5079368;28;45342;-80
2022/08/11 11:01:34;;;;;;;;;11.00;11.00;;;;;33.54;23.02;101347.59;5085146;27;45257;-80
2022/08/11 11:04:13;;;;;;;;;9.67;9.67;;;;;33.70;23.09;101368.09;5078211;28;45399;-80
2022/08/11 11:07:06;;;;;;;;;9.33;9.33;;;;;33.84;22.74;101367.16;5068457;28;46525;-78
2022/08/11 11:09:43;;;;;;;;;10.67;10.67;;;;;33.88;22.60;101357.94;5078926;28;45232;-78
2022/08/11 11:18:18;;;;;;;;;11.67;11.67;;;;;34.17;22.09;101354.97;5066372;28;45911;-79
2022/08/11 11:21:03;;;;;;;;;9.67;9.67;;;;;34.17;21.14;101342.00;5073218;28;45896;-77
2022/08/11 11:23:50;;;;;;;;;12.67;11.67;;;;;34.29;21.50;101346.06;5091400;27;45938;-78
2022/08/11 11:26:54;;;;;;;;;11.33;11.33;;;;;34.41;22.12;101348.97;5071533;28;47285;-78
2022/08/11 11:29:55;;;;;;;;;9.67;9.67;;;;;34.54;21.88;101357.44;5066556;28;47093;-78
2022/08/11 11:32:29;;;;;;;;;9.00;9.00;;;;;34.66;21.90;101340.25;5064210;28;45348;-78
2022/08/11 11:35:32;;;;;;;;;10.00;10.00;;;;;34.75;21.63;101333.59;5065235;27;45165;-79
2022/08/11 11:37:58;;;;;;;;;11.00;11.00;;;;;34.78;21.04;101334.06;5073754;28;45595;-78
2022/08/11 11:40:26;;;;;;;;;10.00;10.00;;;;;34.79;20.79;101333.75;5070082;28;47931;-81
2022/08/11 11:42:55;;;;;;;;;11.00;11.00;;;;;34.87;21.17;101332.91;5067529;28;46080;-81
2022/08/11 11:45:23;;;;;;;;;9.33;9.33;;;;;34.98;21.01;101325.09;5053766;28;45457;-80
2022/08/11 11:47:51;;;;;;;;;9.67;9.67;;;;;35.21;21.41;101333.19;5074101;27;45490;-78
2022/08/11 11:50:22;;;;;;;;;9.33;9.33;;;;;35.30;20.78;101316.59;5076948;28;48081;-79
2022/08/11 11:52:51;;;;;;;;;11.33;11.33;;;;;35.38;20.35;101324.03;5071713;28;45859;-80
2022/08/11 11:55:18;;;;;;;;;8.67;8.33;;;;;35.42;20.63;101315.06;5064540;28;45437;-77
2022/08/11 12:03:13;;;;;;;;;9.67;9.33;;;;;35.66;20.02;101308.13;5080120;28;45369;-79
2022/08/11 12:05:42;;;;;;;;;11.00;11.00;;;;;35.73;20.40;101303.72;5080224;28;45401;-80
2022/08/11 12:08:15;;;;;;;;;11.33;11.33;;;;;35.77;20.32;101298.38;5077256;28;46344;-81
2022/08/11 12:13:49;;;;;;;;;10.33;10.33;;;;;35.91;20.10;101300.84;5080522;28;45370;-79
2022/08/11 12:16:16;;;;;;;;;11.33;11.33;;;;;35.98;20.10;101294.81;5087350;27;45342;-78
2022/08/11 12:18:44;;;;;;;;;11.00;11.00;;;;;36.02;19.67;101298.50;5071691;27;45573;-78
2022/08/11 12:21:10;;;;;;;;;10.00;10.00;;;;;36.05;20.19;101284.00;5065881;28;47187;-78
2022/08/11 12:29:10;;;;;;;;;11.00;10.00;;;;;36.04;19.00;101292.66;5074474;28;45367;-83
2022/08/11 12:31:38;;;;;;;;;11.67;11.67;;;;;35.94;19.37;101285.56;5062437;28;48366;-80
2022/08/11 12:34:06;;;;;;;;;10.33;10.33;;;;;35.97;19.25;101284.91;5073470;27;45615;-80
2022/08/11 12:36:39;;;;;;;;;10.67;10.67;;;;;36.04;19.67;101276.06;5072965;28;45557;-80
2022/08/11 12:39:09;;;;;;;;;11.67;11.33;;;;;36.05;19.45;101259.13;5063261;28;45391;-81
2022/08/11 12:47:24;;;;;;;;;12.00;11.33;;;;;36.32;19.23;101264.44;5054032;28;45396;-82
2022/08/11 12:52:55;;;;;;;;;10.00;10.00;;;;;36.39;19.60;101267.50;5071476;28;48085;-83
2022/08/11 12:58:16;;;;;;;;;11.00;11.00;;;;;36.58;19.12;101266.16;5077485;28;45374;-82
2022/08/11 13:06:18;;;;;;;;;12.67;12.67;;;;;36.78;19.18;101261.78;5072790;28;45299;-81
2022/08/11 13:08:45;;;;;;;;;12.00;11.67;;;;;36.74;18.89;101266.34;5071834;28;45369;-80
2022/08/11 13:13:58;;;;;;;;;11.33;11.33;;;;;36.77;18.97;101257.38;5068477;28;45378;-81
2022/08/11 13:16:30;;;;;;;;;11.67;11.67;;;;;36.82;18.95;101259.09;5080880;27;45550;-80
2022/08/11 13:18:59;;;;;;;;;12.33;12.33;;;;;36.91;19.27;101248.75;5072303;28;45365;-78
2022/08/11 13:21:26;;;;;;;;;12.00;12.00;;;;;36.88;18.51;101236.41;5066256;28;45407;-77
2022/08/11 13:23:55;;;;;;;;;10.67;10.67;;;;;36.87;18.69;101261.66;5076269;27;47276;-78
2022/08/11 13:26:23;;;;;;;;;10.67;10.67;;;;;36.81;19.14;101247.22;5074145;28;45394;-78
2022/08/11 13:28:50;;;;;;;;;13.00;12.33;;;;;36.90;19.18;101241.59;5074848;28;45389;-76
2022/08/11 13:31:16;;;;;;;;;11.67;11.67;;;;;37.01;18.99;101241.94;5080883;27;46410;-81
2022/08/11 13:33:51;;;;;;;;;11.67;11.67;;;;;37.20;18.64;101254.47;5072392;28;47394;-80
2022/08/11 13:36:21;;;;;;;;;12.33;12.33;;;;;37.22;18.06;101235.50;5065110;28;45410;-79
2022/08/11 13:38:47;;;;;;;;;8.33;8.33;;;;;37.29;18.42;101241.31;5070826;28;45501;-80
2022/08/11 13:43:58;;;;;;;;;13.33;13.00;;;;;37.46;18.05;101229.16;5083314;28;45354;-82
2022/08/11 13:46:26;;;;;;;;;11.33;11.33;;;;;37.49;18.22;101236.78;5083387;28;45327;-81
2022/08/11 13:48:55;;;;;;;;;14.33;13.67;;;;;37.61;18.18;101227.63;5078968;28;45437;-79
2022/08/11 13:51:29;;;;;;;;;15.00;13.67;;;;;37.63;17.90;101221.72;5067873;28;47407;-82
2022/08/11 13:53:57;;;;;;;;;11.67;11.67;;;;;37.66;17.51;101228.53;5073643;28;45444;-80
2022/08/11 13:56:23;;;;;;;;;11.67;11.00;;;;;37.71;17.63;101223.56;5074162;28;46273;-82
2022/08/11 13:58:50;;;;;;;;;10.00;10.00;;;;;37.67;17.65;101221.84;5082563;28;45355;-79
2022/08/11 14:01:18;;;;;;;;;12.00;11.33;;;;;37.62;17.93;101232.00;5070887;28;45360;-80
2022/08/11 14:03:46;;;;;;;;;10.67;10.67;;;;;37.52;17.99;101218.63;5074727;28;45273;-80
2022/08/11 14:06:13;;;;;;;;;11.00;11.00;;;;;37.55;18.18;101220.69;5070297;28;45621;-80
2022/08/11 14:08:41;;;;;;;;;11.00;11.00;;;;;37.52;18.29;101218.63;5078087;28;45506;-82
2022/08/11 14:13:52;;;;;;;;;11.00;11.00;;;;;37.44;17.89;101219.56;5080063;28;45684;-79
2022/08/11 14:16:41;;;;;;;;;14.33;13.00;;;;;37.31;17.79;101205.72;5086066;27;45444;-81
2022/08/11 14:19:11;;;;;;;;;11.33;11.33;;;;;37.31;18.13;101202.97;5070643;28;45383;-85
2022/08/11 14:24:26;;;;;;;;;13.33;12.33;;;;;36.76;18.36;101209.50;5069448;28;46101;-79
2022/08/11 14:26:53;;;;;;;;;14.00;14.00;;;;;36.68;18.21;101209.56;5072560;28;45312;-78
2022/08/11 14:29:21;;;;;;;;;13.67;13.67;;;;;36.56;18.18;101202.03;5063022;28;45497;-79
2022/08/11 14:31:53;;;;;;;;;13.33;12.67;;;;;36.53;18.71;101202.75;5072864;28;46211;-78
2022/08/11 14:34:21;;;;;;;;;15.67;14.67;;;;;36.54;17.93;101196.88;5078555;28;48155;-77
2022/08/11 14:36:51;;;;;;;;;9.00;9.00;;;;;36.48;18.56;101182.44;5079483;28;45336;-79
2022/08/11 14:39:21;;;;;;;;;13.33;11.00;;;;;36.50;17.93;101191.22;5080956;27;45504;-78
2022/08/11 14:47:23;;;;;;;;;13.00;13.00;;;;;36.52;18.26;101171.50;5070734;28;45387;-77
2022/08/11 14:49:51;;;;;;;;;13.33;13.33;;;;;36.50;18.25;101174.59;5067760;28;45305;-77
2022/08/11 14:52:19;;;;;;;;;12.33;12.33;;;;;36.51;17.93;101181.75;5069581;28;45363;-77
2022/08/11 14:57:35;;;;;;;;;13.67;13.33;;;;;36.57;17.99;101176.78;5057320;27;45455;-76
2022/08/11 15:00:04;;;;;;;;;15.33;14.33;;;;;36.69;18.36;101180.75;5062026;28;45661;-77
2022/08/11 15:05:14;;;;;;;;;12.00;12.00;;;;;36.87;18.06;101170.31;5076721;28;45410;-78
2022/08/11 15:07:40;;;;;;;;;11.67;11.67;;;;;36.94;17.52;101165.00;5066588;28;45446;-77
2022/08/11 15:10:08;;;;;;;;;11.00;11.00;;;;;37.08;17.69;101167.41;5059678;27;45298;-76
2022/08/11 15:12:38;;;;;;;;;12.00;11.33;;;;;37.33;17.71;101164.63;5064210;28;45789;-75
2022/08/11 15:17:56;;;;;;;;;11.67;11.67;;;;;38.14;17.92;101153.88;5082199;27;45378;-76
2022/08/11 15:26:00;;;;;;;;;11.33;11.33;;;;;39.57;16.60;101152.53;5058090;28;45385;-75
2022/08/11 15:48:13;;;;;;;;;11.67;11.67;;;;;52.15;10.51;101109.66;5081821;28;45453;-77
2022/08/11 15:50:44;;;;;;;;;11.00;11.00;;;;;52.87;10.14;101105.47;5080980;28;45449;-77
2022/08/11 15:53:28;;;;;;;;;10.67;10.67;;;;;53.18;10.16;101111.59;5081748;28;45385;-77
2022/08/11 15:55:55;;;;;;;;;10.33;10.33;;;;;53.55;9.45;101103.22;5097137;27;45524;-77
2022/08/11 16:04:10;;;;;;;;;11.00;11.00;;;;;54.74;8.66;101093.66;5079351;28;45302;-77
2022/08/11 16:07:03;;;;;;;;;11.33;10.67;;;;;54.62;8.62;101092.56;5064921;28;45513;-77
2022/08/11 16:09:33;;;;;;;;;10.00;10.00;;;;;54.22;8.96;101088.66;5059324;28;46539;-77
2022/08/11 16:12:02;;;;;;;;;9.33;9.33;;;;;54.03;7.85;101089.94;5060745;28;45346;-77
2022/08/11 16:17:18;;;;;;;;;11.33;11.33;;;;;54.08;8.64;101089.28;5072042;27;45922;-78
2022/08/11 16:19:47;;;;;;;;;9.67;9.00;;;;;54.19;7.95;101085.97;5077446;28;45517;-78
2022/08/11 16:22:18;;;;;;;;;10.00;10.00;;;;;54.35;7.75;101101.94;5079683;28;45310;-78
2022/08/11 16:24:45;;;;;;;;;12.00;12.00;;;;;54.06;8.96;101089.00;5079499;28;45339;-79